Impacts METAR Board
IDs:

KCLT - Charlotte/Douglas In, NC, US

Updated at: 1300 UTC 27 Feb 2021
Potential Impact None Slight Moderate High
Time 27/01Z 27/02Z 27/03Z 27/04Z 27/05Z 27/06Z 27/07Z 27/08Z 27/09Z 27/10Z 27/11Z 27/12Z 27/13Z
Temp42 42 42 42 42 41 41 41 41 41 41 40 41
Dewpt40 41 41 41 40 39 39 40 40 40 39 39 39
Altim30.24 30.24 30.25 30.25 30.23 30.23 30.21 30.19 30.17 30.19 30.21 30.20 30.22
VIS5 4 4 5 6 10 5 7 10 10 10 4 2
CIG7 6 4 6 5 5 6 4 6 4 7 3 3
CoverOVCOVCOVCOVCOVCOVCOVCOVCOVCOVCOVCOVCOVC
FltCatIFRIFRLIFRIFRIFRIFRIFRLIFRIFRLIFRIFRLIFRLIFR
WX-RA BR-RA BRRA BR-RA BRBR--BR--------BRBR
WDir30340360102020402020360350200
WSpd6 6 8 7 8 6 5 5 4 4 6 5 0
WGst-- -- -- -- -- -- -- -- -- -- -- -- --
Raw hourly METARs
KCLT 270052Z 03006KT 5SM -RA BR BKN007 BKN037 OVC045 06/04 A3024 RMK AO2 SLP240 P0007 T00560044
KCLT 270152Z 34006KT 4SM -RA BR BKN006 OVC028 06/05 A3024 RMK AO2 SLP240 P0005 T00560050
KCLT 270252Z 36008KT 4SM RA BR OVC004 06/05 A3025 RMK AO2 SLP245 P0009 60021 T00560050 53004
KCLT 270352Z 01007KT 5SM -RA BR OVC006 06/05 A3025 RMK AO2 CIG 004V011 SLP243 P0001 T00560050
KCLT 270452Z 02008KT 6SM BR OVC005 06/04 A3023 RMK AO2 RAE35 SLP238 P0002 T00560044 401390056
KCLT 270552Z 02006KT 10SM OVC005 05/04 A3023 RMK AO2 RAB0455E19 SLP236 P0001 60025 T00500039 10061 20050 57008
KCLT 270652Z 04005KT 5SM BR OVC006 05/04 A3021 RMK AO2 SLP230 T00500039
KCLT 270752Z 02005KT 7SM OVC004 05/04 A3019 RMK AO2 SLP223 T00500044
KCLT 270852Z 02004KT 10SM OVC006 05/04 A3017 RMK AO2 RAB00E40 CIG 003V009 SLP219 P0002 60002 T00500044 56011
KCLT 270952Z 36004KT 10SM OVC004 05/04 A3019 RMK AO2 RAB27E36 SLP224 P0000 T00500044
KCLT 271052Z 35006KT 10SM OVC007 05/04 A3021 RMK AO2 RAB0955E06 CIG 003V010 SLP230 P0000 T00500039
KCLT 271152Z 02005KT 4SM BR OVC003 04/04 A3020 RMK AO2 SLP230 60002 70055 T00440039 10050 20044 50010
KCLT 271252Z 00000KT 2SM BR OVC003 05/04 A3022 RMK AO2 SLP236 T00500039



Page loaded:  13:34 UTC  |   05:34 AM Pacific  |   06:34 AM Mountain  |   07:34 AM Central  |   08:34 AM Eastern

 

ADVISORIES

FORECASTS

FORECASTS

OBSERVATIONS

USER TOOLS

ABOUT US